createdAt,value
2019-02-12T00:00:59.757Z,94591.95
2019-02-12T00:03:29.125Z,94578.90
2019-02-12T00:05:58.481Z,94562.60
2019-02-12T00:08:27.865Z,94567.23
2019-02-12T00:10:57.389Z,94585.05
2019-02-12T00:13:26.779Z,94595.08
2019-02-12T00:15:56.251Z,94600.88
2019-02-12T00:18:25.702Z,94607.70
2019-02-12T00:20:55.139Z,94605.03
2019-02-12T00:23:24.516Z,94592.08
2019-02-12T00:25:54.008Z,94588.58
2019-02-12T00:28:23.364Z,94608.28
2019-02-12T00:30:52.923Z,94615.91
2019-02-12T00:33:22.317Z,94617.01
2019-02-12T00:35:51.700Z,94609.89
2019-02-12T00:38:21.053Z,94604.13
2019-02-12T00:40:50.435Z,94602.86
2019-02-12T00:43:19.808Z,94609.89
2019-02-12T00:45:49.237Z,94607.91
2019-02-12T00:48:18.589Z,94604.72
2019-02-12T00:50:48.081Z,94603.61
2019-02-12T00:53:17.486Z,94610.91
2019-02-12T00:55:46.873Z,94615.61
2019-02-12T00:58:16.313Z,94610.48
2019-02-12T01:00:45.739Z,94600.14
2019-02-12T01:03:15.067Z,94599.89
2019-02-12T01:05:44.383Z,94591.84
2019-02-12T01:08:13.831Z,94595.67
2019-02-12T01:10:43.244Z,94622.45
2019-02-12T01:13:12.626Z,94611.66
2019-02-12T01:15:42.016Z,94598.70
2019-02-12T01:18:11.346Z,94587.88
2019-02-12T01:20:40.688Z,94563.17
2019-02-12T01:23:10.114Z,94561.16
2019-02-12T01:25:39.435Z,94564.45
2019-02-12T01:28:08.874Z,94567.45
2019-02-12T01:30:38.236Z,94575.44
2019-02-12T01:33:07.693Z,94578.11
2019-02-12T01:35:37.044Z,94578.41
2019-02-12T01:38:06.390Z,94591.56
2019-02-12T01:40:35.889Z,94612.92
2019-02-12T01:43:05.253Z,94616.94
2019-02-12T01:45:34.648Z,94630.88
2019-02-12T01:48:03.996Z,94620.92
2019-02-12T01:50:33.338Z,94612.30
2019-02-12T01:53:02.807Z,94608.58
2019-02-12T01:55:32.197Z,94605.53
2019-02-12T01:58:01.693Z,94604.44
2019-02-12T02:00:31.129Z,94612.70
2019-02-12T02:03:00.594Z,94614.47
2019-02-12T02:05:30.068Z,94620.80
2019-02-12T02:07:59.471Z,94618.15
2019-02-12T02:10:28.811Z,94611.60
2019-02-12T02:12:58.127Z,94602.39
2019-02-12T02:15:27.418Z,94592.59
2019-02-12T02:17:56.772Z,94602.66
2019-02-12T02:20:26.279Z,94608.08
2019-02-12T02:22:55.583Z,94609.52
2019-02-12T02:25:24.996Z,94620.72
2019-02-12T02:27:54.430Z,94598.34
2019-02-12T02:30:23.886Z,94611.06
2019-02-12T02:32:53.288Z,94608.28
2019-02-12T02:35:22.648Z,94615.79
2019-02-12T02:37:52.012Z,94617.01
2019-02-12T02:40:21.419Z,94616.02
2019-02-12T02:42:50.819Z,94607.44
2019-02-12T02:45:20.138Z,94608.92
2019-02-12T02:47:49.519Z,94613.37
2019-02-12T02:50:19.046Z,94605.02
2019-02-12T02:52:48.451Z,94604.39
2019-02-12T02:55:17.841Z,94602.42
2019-02-12T02:57:47.203Z,94603.32
2019-02-12T03:00:16.599Z,94605.55
2019-02-12T03:02:46.038Z,94606.58
2019-02-12T03:05:15.473Z,94605.30
2019-02-12T03:07:44.825Z,94606.09
2019-02-12T03:10:14.120Z,94605.60
2019-02-12T03:12:43.486Z,94606.94
2019-02-12T03:15:12.831Z,94605.98
2019-02-12T03:17:42.271Z,94600.17
2019-02-12T03:20:12.233Z,94608.28
2019-02-12T03:22:41.708Z,94612.02
2019-02-12T03:25:11.208Z,94612.67
2019-02-12T03:27:40.657Z,94622.31
2019-02-12T03:30:10.760Z,94611.77
2019-02-12T03:32:40.119Z,94621.29
2019-02-12T03:35:09.889Z,94620.27
2019-02-12T03:37:39.240Z,94621.66
2019-02-12T03:40:09.860Z,94620.33
2019-02-12T03:42:39.192Z,94620.50
2019-02-12T03:45:09.660Z,94618.52
2019-02-12T03:47:39.087Z,94616.41
2019-02-12T03:50:09.163Z,94620.32
2019-02-12T03:52:38.546Z,94613.86
2019-02-12T03:55:09.326Z,94625.53
2019-02-12T03:57:39.274Z,94626.22
2019-02-12T04:00:11.215Z,94630.58
2019-02-12T04:02:59.531Z,94628.68
2019-02-12T04:05:28.828Z,94633.55
2019-02-12T04:07:58.207Z,94629.47
2019-02-12T04:10:27.594Z,94638.27
2019-02-12T04:12:57.009Z,94626.63
2019-02-12T04:15:26.500Z,94627.55
2019-02-12T04:17:55.925Z,94628.52
2019-02-12T04:20:25.414Z,94638.44
2019-02-12T04:22:54.818Z,94638.44
2019-02-12T04:25:24.248Z,94640.63
2019-02-12T04:27:55.348Z,94638.19
2019-02-12T04:30:24.897Z,94646.57
2019-02-12T04:32:54.326Z,94654.54
2019-02-12T04:35:23.793Z,94653.46
2019-02-12T04:37:53.218Z,94660.09
2019-02-12T04:40:22.540Z,94657.25
2019-02-12T04:42:52.036Z,94661.25
2019-02-12T04:45:21.454Z,94664.24
2019-02-12T04:47:50.854Z,94662.27
2019-02-12T04:50:20.190Z,94667.48
2019-02-12T04:52:49.599Z,94667.74
2019-02-12T04:55:19.012Z,94662.42
2019-02-12T04:57:48.415Z,94662.70
2019-02-12T05:00:17.864Z,94660.18
2019-02-12T05:02:47.193Z,94655.39
2019-02-12T05:05:16.561Z,94651.30
2019-02-12T05:07:45.994Z,94659.44
2019-02-12T05:10:16.535Z,94668.94
2019-02-12T05:12:46.145Z,94674.04
2019-02-12T05:15:17.776Z,94685.23
2019-02-12T05:17:47.118Z,94690.88
2019-02-12T05:20:16.521Z,94694.23
2019-02-12T05:22:45.963Z,94690.34
2019-02-12T05:25:15.320Z,94694.94
2019-02-12T05:27:44.689Z,94692.58
2019-02-12T05:30:14.228Z,94702.86
2019-02-12T05:32:43.595Z,94704.85
2019-02-12T05:35:12.998Z,94712.56
2019-02-12T05:37:42.403Z,94710.75
2019-02-12T05:40:11.923Z,94719.94
2019-02-12T05:42:41.326Z,94715.12
2019-02-12T05:45:11.494Z,94734.00
2019-02-12T05:47:40.884Z,94730.48
2019-02-12T05:50:11.982Z,94735.23
2019-02-12T05:52:41.354Z,94736.25
2019-02-12T05:55:11.211Z,94758.09
2019-02-12T05:57:40.659Z,94760.61
2019-02-12T06:00:12.349Z,94773.71
2019-02-12T06:02:41.739Z,94771.59
2019-02-12T06:05:12.847Z,94779.97
2019-02-12T06:07:42.224Z,94781.99
2019-02-12T06:10:12.076Z,94784.98
2019-02-12T06:12:41.449Z,94784.02
2019-02-12T06:15:10.856Z,94788.77
2019-02-12T06:17:40.217Z,94801.57
2019-02-12T06:20:09.550Z,94788.70
2019-02-12T06:22:39.380Z,94793.62
2019-02-12T06:25:08.756Z,94794.07
2019-02-12T06:27:38.131Z,94790.38
2019-02-12T06:30:07.858Z,94788.30
2019-02-12T06:32:37.195Z,94775.81
2019-02-12T06:35:07.056Z,94779.62
2019-02-12T06:37:36.494Z,94780.46
2019-02-12T06:40:06.613Z,94784.28
2019-02-12T06:42:36.034Z,94794.45
2019-02-12T06:45:05.752Z,94795.41
2019-02-12T06:47:35.131Z,94793.83
2019-02-12T06:50:04.651Z,94794.44
2019-02-12T06:52:34.005Z,94789.34
2019-02-12T06:55:03.403Z,94788.05
2019-02-12T06:57:32.731Z,94795.97
2019-02-12T07:00:02.268Z,94800.84
2019-02-12T07:03:09.560Z,94802.13
2019-02-12T07:05:40.095Z,94814.41
2019-02-12T07:08:53.104Z,94815.36
2019-02-12T07:11:47.557Z,94813.98
2019-02-12T07:14:56.196Z,94829.16
2019-02-12T07:18:01.171Z,94818.00
2019-02-12T07:21:09.403Z,94824.85
2019-02-12T07:24:13.630Z,94832.20
2019-02-12T07:27:14.202Z,94839.11
2019-02-12T07:30:23.576Z,94826.73
2019-02-12T07:33:13.369Z,94854.00
2019-02-12T07:36:30.935Z,94867.77
2019-02-12T07:39:43.384Z,94855.75
2019-02-12T07:42:35.103Z,94855.21
2019-02-12T07:45:44.488Z,94855.21
2019-02-12T07:48:57.502Z,94858.56
2019-02-12T07:52:10.996Z,94867.09
2019-02-12T07:55:25.480Z,94866.73
2019-02-12T07:58:35.423Z,94885.72
2019-02-12T08:01:54.836Z,94901.48
2019-02-12T08:05:19.260Z,94891.16
2019-02-12T08:08:28.691Z,94897.13
2019-02-12T08:12:00.111Z,94918.39
2019-02-12T08:15:00.075Z,94938.91
2019-02-12T08:18:04.094Z,94922.20
2019-02-12T08:21:38.990Z,94915.03
2019-02-12T08:25:01.329Z,94916.19
2019-02-12T08:28:06.235Z,94928.55
2019-02-12T08:31:09.749Z,94927.22
2019-02-12T08:34:23.653Z,94914.12
2019-02-12T08:37:09.159Z,94915.27
2019-02-12T08:40:34.708Z,94920.06
2019-02-12T08:43:54.331Z,94909.99
2019-02-12T08:47:01.738Z,94904.75
2019-02-12T08:50:14.852Z,94920.48
2019-02-12T08:53:09.021Z,94928.58
2019-02-12T08:56:43.536Z,94941.94
2019-02-12T08:59:37.536Z,94927.77
2019-02-12T09:03:08.953Z,94946.31
2019-02-12T09:06:17.465Z,94939.97
2019-02-12T09:09:11.934Z,94941.16
2019-02-12T09:12:22.344Z,94949.47
2019-02-12T09:15:25.941Z,94947.37
2019-02-12T09:18:33.341Z,94964.34
2019-02-12T09:21:51.678Z,94957.13
2019-02-12T09:24:52.302Z,94948.08
2019-02-12T09:27:30.016Z,94970.39
2019-02-12T09:30:27.652Z,94975.41
2019-02-12T09:33:37.404Z,94976.91
2019-02-12T09:36:56.878Z,94980.86
2019-02-12T09:40:22.587Z,94976.23
2019-02-12T09:43:38.810Z,94992.19
2019-02-12T09:46:49.044Z,94979.45
2019-02-12T09:49:58.512Z,94981.74
2019-02-12T09:53:02.185Z,94976.16
2019-02-12T09:55:59.667Z,94972.78
2019-02-12T09:59:09.761Z,94959.41
2019-02-12T10:02:02.763Z,94982.58
2019-02-12T10:04:57.067Z,94967.33
2019-02-12T10:07:57.261Z,94978.91
2019-02-12T10:10:48.857Z,94972.16
2019-02-12T10:13:55.718Z,94987.77
2019-02-12T10:17:06.984Z,94990.91
2019-02-12T10:20:06.466Z,94990.97
2019-02-12T10:23:13.285Z,94989.16
2019-02-12T10:25:51.215Z,94995.05
2019-02-12T10:29:08.026Z,94985.34
2019-02-12T10:31:42.655Z,94998.02
2019-02-12T10:34:12.380Z,94997.84
2019-02-12T10:36:41.802Z,95001.02
2019-02-12T10:39:17.179Z,95004.25
2019-02-12T10:41:46.629Z,95002.84
2019-02-12T10:44:16.042Z,95018.70
2019-02-12T10:46:45.609Z,95019.80
2019-02-12T10:49:14.986Z,95021.36
2019-02-12T10:51:44.350Z,94991.36
2019-02-12T10:54:14.045Z,95027.06
2019-02-12T10:56:43.389Z,95043.30
2019-02-12T10:59:25.564Z,95037.77
2019-02-12T11:01:54.984Z,95056.73
2019-02-12T11:04:24.467Z,95040.89
2019-02-12T11:06:53.780Z,95053.63
2019-02-12T11:09:23.192Z,95053.63
2019-02-12T11:11:52.624Z,95038.82
2019-02-12T11:14:22.031Z,95063.50
2019-02-12T11:16:51.464Z,95033.05
2019-02-12T11:19:20.896Z,95066.75
2019-02-12T11:21:51.190Z,95073.03
2019-02-12T11:24:20.815Z,95068.13
2019-02-12T11:26:50.180Z,95081.53
2019-02-12T11:29:19.558Z,95078.77
2019-02-12T11:31:49.257Z,95062.05
2019-02-12T11:34:18.735Z,95056.81
2019-02-12T11:36:48.168Z,95074.92
2019-02-12T11:39:17.544Z,95074.92
2019-02-12T11:41:46.887Z,95091.05
2019-02-12T11:44:16.294Z,95084.97
2019-02-12T11:46:45.709Z,95084.79
2019-02-12T11:49:15.063Z,95078.49
2019-02-12T11:51:44.497Z,95078.98
2019-02-12T11:54:14.143Z,95074.20
2019-02-12T11:56:43.442Z,95084.45
2019-02-12T11:59:12.771Z,95084.45
2019-02-12T12:01:42.251Z,95095.84
2019-02-12T12:04:11.669Z,95087.95
2019-02-12T12:06:41.153Z,95102.78
2019-02-12T12:09:10.682Z,95110.41
2019-02-12T12:11:40.150Z,95110.43
2019-02-12T12:14:09.614Z,95111.16
2019-02-12T12:16:39.013Z,95097.77
2019-02-12T12:19:08.400Z,95097.84
2019-02-12T12:21:37.857Z,95097.84
2019-02-12T12:24:07.247Z,95137.23
2019-02-12T12:26:36.571Z,95134.33
2019-02-12T12:29:05.903Z,95131.05
2019-02-12T12:31:35.258Z,95143.99
2019-02-12T12:34:04.726Z,95148.80
2019-02-12T12:36:34.084Z,95138.39
2019-02-12T12:39:04.973Z,95139.77
2019-02-12T12:41:36.579Z,95149.61
2019-02-12T12:44:05.972Z,95146.75
2019-02-12T12:46:35.328Z,95155.72
2019-02-12T12:49:11.863Z,95182.19
2019-02-12T12:51:41.267Z,95182.19
2019-02-12T12:54:10.592Z,95187.94
2019-02-12T12:56:40.023Z,95187.59
2019-02-12T12:59:09.651Z,95197.41
2019-02-12T13:01:39.026Z,95198.47
2019-02-12T13:04:08.431Z,95186.61
2019-02-12T13:06:37.874Z,95187.91
2019-02-12T13:09:07.712Z,95211.25
2019-02-12T13:11:37.193Z,95211.25
2019-02-12T13:14:06.645Z,95204.48
2019-02-12T13:16:36.058Z,95199.19
2019-02-12T13:19:05.463Z,95199.66
2019-02-12T13:21:34.913Z,95207.03
2019-02-12T13:24:04.359Z,95204.72
2019-02-12T13:26:33.815Z,95232.64
2019-02-12T13:29:03.226Z,95232.64
2019-02-12T13:31:32.623Z,95233.84
2019-02-12T13:34:01.994Z,95240.67
2019-02-12T13:36:31.359Z,95226.55
2019-02-12T13:39:00.726Z,95252.67
2019-02-12T13:41:30.195Z,95250.81
2019-02-12T13:43:59.649Z,95250.81
2019-02-12T13:46:28.981Z,95254.38
2019-02-12T13:48:58.384Z,95239.05
2019-02-12T13:51:27.826Z,95270.43
2019-02-12T13:53:57.175Z,95264.27
2019-02-12T13:56:26.699Z,95274.73
2019-02-12T13:58:56.099Z,95279.49
2019-02-12T14:01:25.558Z,95286.09
2019-02-12T14:03:54.923Z,95284.52
2019-02-12T14:06:24.283Z,95289.88
2019-02-12T14:08:53.699Z,95292.73
2019-02-12T14:11:23.073Z,95294.59
2019-02-12T14:13:52.768Z,95297.11
2019-02-12T14:16:22.148Z,95299.60
2019-02-12T14:18:51.640Z,95313.75
2019-02-12T14:21:20.996Z,95307.92
2019-02-12T14:23:50.511Z,95314.63
2019-02-12T14:26:19.963Z,95310.16
2019-02-12T14:28:49.362Z,95318.95
2019-02-12T14:31:18.778Z,95322.95
2019-02-12T14:33:48.188Z,95318.63
2019-02-12T14:36:17.567Z,95335.44
2019-02-12T14:38:46.940Z,95329.02
2019-02-12T14:41:16.424Z,95336.52
2019-02-12T14:43:45.825Z,95349.41
2019-02-12T14:46:15.234Z,95355.34
2019-02-12T14:48:44.680Z,95353.27
2019-02-12T14:51:14.031Z,95357.30
2019-02-12T14:53:43.388Z,95360.05
2019-02-12T14:56:13.672Z,95364.80
2019-02-12T14:58:43.074Z,95367.41
2019-02-12T15:01:12.816Z,95371.68
2019-02-12T15:03:42.142Z,95364.66
2019-02-12T15:06:11.532Z,95384.63
2019-02-12T15:08:40.942Z,95388.34
2019-02-12T15:11:11.894Z,95381.17
2019-02-12T15:13:41.343Z,95384.14
2019-02-12T15:16:10.783Z,95387.59
2019-02-12T15:18:40.323Z,95385.78
2019-02-12T15:21:09.660Z,95379.38
2019-02-12T15:23:39.036Z,95392.98
2019-02-12T15:26:08.501Z,95374.91
2019-02-12T15:28:37.855Z,95387.73
2019-02-12T15:31:07.224Z,95367.81
2019-02-12T15:33:36.591Z,95387.53
2019-02-12T15:36:05.983Z,95382.48
2019-02-12T15:38:35.335Z,95389.98
2019-02-12T15:41:04.751Z,95394.52
2019-02-12T15:43:34.173Z,95380.16
2019-02-12T15:46:03.636Z,95410.80
2019-02-12T15:48:33.068Z,95396.44
2019-02-12T15:51:02.491Z,95396.17
2019-02-12T15:53:31.911Z,95412.45
2019-02-12T15:56:01.268Z,95415.11
2019-02-12T15:58:30.965Z,95435.03
2019-02-12T16:01:01.885Z,95425.20
2019-02-12T16:03:31.331Z,95442.78
2019-02-12T16:06:00.770Z,95457.15
2019-02-12T16:08:32.000Z,95457.15
2019-02-12T16:11:01.458Z,95461.41
2019-02-12T16:13:32.628Z,95468.84
2019-02-12T16:16:01.938Z,95482.70
2019-02-12T16:18:31.364Z,95477.91
2019-02-12T16:21:00.761Z,95484.80
2019-02-12T16:23:30.162Z,95491.45
2019-02-12T16:25:59.795Z,95496.53
2019-02-12T16:28:29.187Z,95500.25
2019-02-12T16:30:58.576Z,95493.62
2019-02-12T16:33:28.091Z,95494.41
2019-02-12T16:35:57.509Z,95499.21
2019-02-12T16:38:26.923Z,95515.19
2019-02-12T16:40:56.278Z,95511.50
2019-02-12T16:43:25.650Z,95516.82
2019-02-12T16:45:59.906Z,95511.27
2019-02-12T16:48:29.238Z,95529.08
2019-02-12T16:50:58.676Z,95518.45
2019-02-12T16:53:28.055Z,95550.61
2019-02-12T16:55:57.465Z,95550.36
2019-02-12T16:58:26.862Z,95520.08
2019-02-12T17:00:56.237Z,95545.86
2019-02-12T17:03:25.609Z,95571.10
2019-02-12T17:05:55.131Z,95570.55
2019-02-12T17:08:24.534Z,95572.97
2019-02-12T17:10:53.974Z,95575.09
2019-02-12T17:13:23.472Z,95582.27
2019-02-12T17:15:52.853Z,95570.59
2019-02-12T17:18:22.237Z,95583.59
2019-02-12T17:20:51.726Z,95585.73
2019-02-12T17:23:21.151Z,95584.64
2019-02-12T17:25:50.584Z,95591.05
2019-02-12T17:28:20.078Z,95603.27
2019-02-12T17:30:49.482Z,95594.23
2019-02-12T17:33:18.851Z,95584.93
2019-02-12T17:35:48.305Z,95607.00
2019-02-12T17:38:17.693Z,95609.38
2019-02-12T17:40:47.271Z,95612.04
2019-02-12T17:43:16.715Z,95612.31
2019-02-12T17:45:46.114Z,95604.34
2019-02-12T17:48:15.527Z,95628.55
2019-02-12T17:50:45.206Z,95620.02
2019-02-12T17:53:14.621Z,95626.66
2019-02-12T17:55:44.037Z,95634.63
2019-02-12T17:58:13.479Z,95618.97
2019-02-12T18:00:45.101Z,95625.61
2019-02-12T18:03:14.486Z,95634.63
2019-02-12T18:05:43.927Z,95623.75
2019-02-12T18:08:13.370Z,95624.28
2019-02-12T18:10:42.823Z,95635.96
2019-02-12T18:13:12.274Z,95644.22
2019-02-12T18:15:41.837Z,95649.00
2019-02-12T18:18:11.369Z,94912.83
2019-02-12T18:20:40.872Z,95639.70
2019-02-12T18:23:10.305Z,95640.50
2019-02-12T18:25:41.796Z,95656.17
2019-02-12T18:28:11.297Z,95649.00
2019-02-12T18:30:40.681Z,95653.80
2019-02-12T18:33:10.145Z,95659.91
2019-02-12T18:35:39.591Z,95650.08
2019-02-12T18:38:08.995Z,95656.72
2019-02-12T18:40:38.417Z,95675.57
2019-02-12T18:43:07.826Z,95666.55
2019-02-12T18:45:37.300Z,95671.58
2019-02-12T18:48:06.823Z,95672.66
2019-02-12T18:50:36.289Z,95671.05
2019-02-12T18:53:05.804Z,95681.94
2019-02-12T18:55:37.277Z,95695.48
2019-02-12T18:58:07.085Z,95693.09
2019-02-12T19:00:36.612Z,95697.88
2019-02-12T19:03:06.182Z,95712.74
2019-02-12T19:05:38.147Z,95714.08
2019-02-12T19:08:07.653Z,95710.09
2019-02-12T19:10:37.109Z,95712.75
2019-02-12T19:13:06.572Z,95708.78
2019-02-12T19:15:36.038Z,95708.51
2019-02-12T19:18:08.970Z,95706.90
2019-02-12T19:20:38.392Z,95716.73
2019-02-12T19:23:08.301Z,95713.55
2019-02-12T19:25:37.642Z,95721.27
2019-02-12T19:28:07.056Z,95717.52
2019-02-12T19:30:36.537Z,95723.92
2019-02-12T19:33:05.903Z,95718.59
2019-02-12T19:35:35.384Z,95727.06
2019-02-12T19:38:05.805Z,95732.64
2019-02-12T19:40:35.159Z,95730.80
2019-02-12T19:43:04.574Z,95752.58
2019-02-12T19:45:34.513Z,95744.61
2019-02-12T19:48:04.335Z,95742.20
2019-02-12T19:50:33.993Z,95744.58
2019-02-12T19:53:03.547Z,95742.70
2019-02-12T19:55:33.496Z,95747.47
2019-02-12T19:58:02.892Z,95749.85
2019-02-12T20:00:32.343Z,95747.19
2019-02-12T20:03:01.933Z,95752.76
2019-02-12T20:05:31.767Z,95753.30
2019-02-12T20:08:01.114Z,95762.59
2019-02-12T20:10:30.528Z,95755.70
2019-02-12T20:13:01.012Z,95761.26
2019-02-12T20:15:30.478Z,95755.41
2019-02-12T20:18:01.063Z,95768.13
2019-02-12T20:20:31.778Z,95769.17
2019-02-12T20:23:01.139Z,95773.18
2019-02-12T20:25:32.291Z,95777.16
2019-02-12T20:28:01.686Z,95782.46
2019-02-12T20:30:31.081Z,95781.13
2019-02-12T20:33:00.528Z,95777.44
2019-02-12T20:35:36.234Z,95784.03
2019-02-12T20:38:01.472Z,95792.25
2019-02-12T20:40:31.205Z,95791.44
2019-02-12T20:43:04.738Z,95793.58
2019-02-12T20:45:34.141Z,95795.44
2019-02-12T20:48:03.621Z,95792.00
2019-02-12T20:50:33.011Z,95792.27
2019-02-12T20:53:02.539Z,95802.06
2019-02-12T20:55:31.934Z,95794.63
2019-02-12T20:58:01.341Z,95789.59
2019-02-12T21:00:30.768Z,95787.20
2019-02-12T21:03:00.224Z,95801.27
2019-02-12T21:05:29.672Z,95805.56
2019-02-12T21:07:59.103Z,95803.16
2019-02-12T21:10:28.517Z,95797.03
2019-02-12T21:12:57.899Z,95799.95
2019-02-12T21:15:27.348Z,95809.50
2019-02-12T21:17:56.864Z,95799.69
2019-02-12T21:20:26.317Z,95799.42
2019-02-12T21:22:55.695Z,95815.86
2019-02-12T21:25:25.148Z,95814.53
2019-02-12T21:27:54.531Z,95811.07
2019-02-12T21:30:23.930Z,95818.81
2019-02-12T21:32:53.299Z,95829.94
2019-02-12T21:35:22.633Z,95833.08
2019-02-12T21:37:51.947Z,95838.13
2019-02-12T21:40:22.381Z,95831.73
2019-02-12T21:42:51.977Z,95841.59
2019-02-12T21:45:21.309Z,95841.29
2019-02-12T21:47:50.776Z,95841.25
2019-02-12T21:50:20.134Z,95847.66
2019-02-12T21:52:49.559Z,95842.11
2019-02-12T21:55:20.290Z,95813.30
2019-02-12T21:57:49.678Z,95856.67
2019-02-12T22:00:19.052Z,95864.11
2019-02-12T22:02:48.398Z,95872.35
2019-02-12T22:05:17.739Z,95859.56
2019-02-12T22:07:47.099Z,95851.62
2019-02-12T22:10:17.797Z,95863.81
2019-02-12T22:12:47.233Z,95867.80
2019-02-12T22:15:16.617Z,95870.19
2019-02-12T22:17:46.122Z,95874.13
2019-02-12T22:20:16.464Z,95878.66
2019-02-12T22:22:45.869Z,95870.70
2019-02-12T22:25:15.315Z,95874.91
2019-02-12T22:27:44.827Z,95877.00
2019-02-12T22:30:16.334Z,95879.66
2019-02-12T22:32:45.633Z,95872.77
2019-02-12T22:35:15.002Z,95870.11
2019-02-12T22:37:44.442Z,95870.89
2019-02-12T22:40:14.385Z,95866.67
2019-02-12T22:42:43.799Z,95875.42
2019-02-12T22:45:15.259Z,95876.48
2019-02-12T22:47:44.616Z,95879.66
2019-02-12T22:50:14.123Z,95892.41
2019-02-12T22:52:43.626Z,95905.94
2019-02-12T22:55:13.066Z,95896.38
2019-02-12T22:57:48.788Z,95893.70
2019-02-12T23:00:25.875Z,95901.95
2019-02-12T23:02:55.404Z,95898.52
2019-02-12T23:05:24.813Z,95906.14
2019-02-12T23:07:54.231Z,95911.73
2019-02-12T23:10:23.648Z,95910.41
2019-02-12T23:12:53.053Z,95905.60
2019-02-12T23:15:22.496Z,95906.13
2019-02-12T23:17:51.851Z,95914.32
2019-02-12T23:20:21.209Z,95915.94
2019-02-12T23:22:50.647Z,95920.98
2019-02-12T23:25:20.060Z,95920.67
2019-02-12T23:27:56.996Z,95923.04
2019-02-12T23:30:20.787Z,95923.28
2019-02-12T23:32:50.267Z,95934.36
2019-02-12T23:35:19.624Z,95918.96
2019-02-12T23:37:49.066Z,95925.39
2019-02-12T23:40:18.497Z,95922.73
2019-02-12T23:42:47.967Z,95928.25
2019-02-12T23:45:17.444Z,95934.83
2019-02-12T23:47:46.836Z,95923.96
2019-02-12T23:50:16.244Z,95944.89
2019-02-12T23:52:45.702Z,95943.77
2019-02-12T23:55:15.146Z,95944.52
2019-02-12T23:57:44.607Z,95940.75
